Time,TemperatureF,DewpointF,PressureIn,WindDirection,WindDirectionDegrees,WindSpeedMPH,WindSpeedGustMPH,Humidity,HourlyPrecipIn,Conditions,Clouds,dailyrainin,SoftwareType,DateUTC
2013-06-27 00:01:00,65.2,65.2,29.86,NNE,15,2.5,2.5,100,0.00,,,0.00,VWS V14.01,2013-06-27 04:01:00,
2013-06-27 00:03:00,65.1,65.1,29.86,NNE,15,2.5,2.5,100,0.00,,,0.00,VWS V14.01,2013-06-27 04:03:00,
2013-06-27 00:07:00,65.1,65.1,29.86,NNE,15,2.5,2.5,100,0.00,,,0.00,VWS V14.01,2013-06-27 04:07:00,
2013-06-27 00:09:00,65.1,65.1,29.86,NNE,15,2.5,2.5,100,0.00,,,0.00,VWS V14.01,2013-06-27 04:09:00,
2013-06-27 00:13:00,65.1,65.1,29.86,NNE,15,2.5,2.5,100,0.00,,,0.00,VWS V14.01,2013-06-27 04:13:00,
2013-06-27 00:19:00,64.8,64.8,29.86,NNE,15,2.5,2.5,100,0.00,,,0.00,VWS V14.01,2013-06-27 04:19:00,
2013-06-27 00:25:00,64.8,64.8,29.85,NNE,15,2.5,2.5,100,0.00,,,0.00,VWS V14.01,2013-06-27 04:25:00,
2013-06-27 00:31:00,64.7,64.7,29.85,SE,136,2.5,2.5,100,0.00,,,0.00,VWS V14.01,2013-06-27 04:31:00,
2013-06-27 00:37:00,64.8,64.8,29.85,SE,136,2.5,2.5,100,0.00,,,0.00,VWS V14.01,2013-06-27 04:37:00,
2013-06-27 00:43:00,64.7,64.7,29.85,SSE,148,2.5,2.5,100,0.00,,,0.00,VWS V14.01,2013-06-27 04:43:00,
2013-06-27 00:49:00,64.4,64.4,29.85,SSE,148,2.5,2.5,100,0.00,,,0.00,VWS V14.01,2013-06-27 04:49:00,
2013-06-27 00:55:00,64.1,64.1,29.85,SSE,148,2.5,2.5,100,0.00,,,0.00,VWS V14.01,2013-06-27 04:55:00,
2013-06-27 01:01:00,64.2,64.2,29.85,SSE,148,2.5,2.5,100,0.00,,,0.00,VWS V14.01,2013-06-27 05:01:00,
2013-06-27 01:07:00,63.7,63.7,29.85,SSE,148,2.5,2.5,100,0.00,,,0.00,VWS V14.01,2013-06-27 05:07:00,
2013-06-27 01:13:00,63.7,63.7,29.85,SSE,148,2.5,2.5,100,0.00,,,0.00,VWS V14.01,2013-06-27 05:13:00,
2013-06-27 01:19:00,64.0,64.0,29.85,SSE,148,2.5,2.5,100,0.00,,,0.00,VWS V14.01,2013-06-27 05:19:00,
2013-06-27 01:25:00,63.8,63.8,29.85,SSE,148,2.5,2.5,100,0.00,,,0.00,VWS V14.01,2013-06-27 05:25:00,
2013-06-27 01:31:00,63.8,63.8,29.84,SSE,148,2.5,2.5,100,0.00,,,0.00,VWS V14.01,2013-06-27 05:31:00,
2013-06-27 01:37:00,63.8,63.8,29.84,SSE,148,2.5,2.5,100,0.00,,,0.00,VWS V14.01,2013-06-27 05:37:00,
2013-06-27 01:43:00,63.8,63.8,29.84,SSE,148,2.5,2.5,100,0.00,,,0.00,VWS V14.01,2013-06-27 05:43:00,
2013-06-27 01:49:00,63.6,63.6,29.84,SSE,148,2.5,2.5,100,0.00,,,0.00,VWS V14.01,2013-06-27 05:49:00,
2013-06-27 01:55:00,63.9,63.9,29.84,SSE,148,2.5,2.5,100,0.00,,,0.00,VWS V14.01,2013-06-27 05:55:00,
2013-06-27 02:01:00,63.6,63.6,29.84,SSE,148,2.5,2.5,100,0.00,,,0.00,VWS V14.01,2013-06-27 06:01:00,
2013-06-27 02:07:00,63.6,63.6,29.84,SSE,148,2.5,2.5,100,0.00,,,0.00,VWS V14.01,2013-06-27 06:07:00,
2013-06-27 02:13:00,63.4,63.4,29.84,SSE,148,2.5,2.5,100,0.00,,,0.00,VWS V14.01,2013-06-27 06:13:00,
2013-06-27 02:19:00,63.6,63.6,29.84,SSE,148,2.5,2.5,100,0.00,,,0.00,VWS V14.01,2013-06-27 06:19:00,
2013-06-27 02:25:00,63.6,63.6,29.84,SSE,148,2.5,2.5,100,0.00,,,0.00,VWS V14.01,2013-06-27 06:25:00,
2013-06-27 02:31:00,63.3,63.3,29.84,SSE,148,2.5,2.5,100,0.00,,,0.00,VWS V14.01,2013-06-27 06:31:00,
2013-06-27 02:37:00,63.1,63.1,29.84,SSE,148,2.5,2.5,100,0.00,,,0.00,VWS V14.01,2013-06-27 06:37:00,
2013-06-27 02:43:00,63.3,63.3,29.85,SSE,148,2.5,2.5,100,0.00,,,0.00,VWS V14.01,2013-06-27 06:43:00,
2013-06-27 02:49:00,63.1,63.1,29.85,NE,44,5.9,6.1,100,0.00,,,0.00,VWS V14.01,2013-06-27 06:49:00,
2013-06-27 02:55:00,62.9,62.9,29.85,NE,39,3.1,3.6,100,0.00,,,0.00,VWS V14.01,2013-06-27 06:55:00,
2013-06-27 03:01:00,62.9,62.9,29.84,ENE,73,2.5,5.0,100,0.00,,,0.00,VWS V14.01,2013-06-27 07:01:00,
2013-06-27 03:07:00,62.8,62.8,29.84,NNE,27,2.5,2.5,100,0.00,,,0.00,VWS V14.01,2013-06-27 07:07:00,
2013-06-27 03:13:00,62.9,62.9,29.84,NNE,27,2.5,2.5,100,0.00,,,0.00,VWS V14.01,2013-06-27 07:13:00,
2013-06-27 03:19:00,62.6,62.6,29.84,East,90,3.6,4.4,100,0.00,,,0.00,VWS V14.01,2013-06-27 07:19:00,
2013-06-27 03:25:00,62.9,62.9,29.84,East,90,2.5,2.5,100,0.00,,,0.00,VWS V14.01,2013-06-27 07:25:00,
2013-06-27 03:31:00,62.9,62.9,29.83,NE,49,2.5,2.5,100,0.00,,,0.00,VWS V14.01,2013-06-27 07:31:00,
2013-06-27 03:37:00,62.7,62.7,29.84,NE,49,2.5,2.5,100,0.00,,,0.00,VWS V14.01,2013-06-27 07:37:00,
2013-06-27 03:43:00,63.1,63.1,29.84,NE,49,2.5,2.5,100,0.00,,,0.00,VWS V14.01,2013-06-27 07:43:00,
2013-06-27 03:49:00,62.9,62.9,29.84,NE,49,2.5,2.5,100,0.00,,,0.00,VWS V14.01,2013-06-27 07:49:00,
2013-06-27 03:55:00,62.7,62.7,29.84,NE,49,2.5,2.5,100,0.00,,,0.00,VWS V14.01,2013-06-27 07:55:00,
2013-06-27 04:01:00,62.9,62.9,29.83,NE,49,2.5,2.5,100,0.00,,,0.00,VWS V14.01,2013-06-27 08:01:00,
2013-06-27 04:07:00,62.8,62.8,29.83,NE,49,2.5,2.5,100,0.00,,,0.00,VWS V14.01,2013-06-27 08:07:00,
2013-06-27 04:13:00,62.9,62.9,29.84,NE,49,2.5,2.5,100,0.00,,,0.00,VWS V14.01,2013-06-27 08:13:00,
2013-06-27 04:19:00,62.7,62.7,29.83,ENE,63,2.5,4.3,100,0.00,,,0.00,VWS V14.01,2013-06-27 08:19:00,
2013-06-27 04:25:00,62.6,62.6,29.83,NE,37,2.5,4.1,100,0.00,,,0.00,VWS V14.01,2013-06-27 08:25:00,
2013-06-27 04:31:00,62.8,62.8,29.84,ESE,104,2.5,2.5,100,0.00,,,0.00,VWS V14.01,2013-06-27 08:31:00,
2013-06-27 04:37:00,62.8,62.8,29.84,NE,44,2.5,4.1,100,0.00,,,0.00,VWS V14.01,2013-06-27 08:37:00,
2013-06-27 04:43:00,62.8,62.8,29.84,NE,44,2.5,2.7,100,0.00,,,0.00,VWS V14.01,2013-06-27 08:43:00,
2013-06-27 04:49:00,62.8,62.8,29.84,South,169,2.5,5.2,100,0.00,,,0.00,VWS V14.01,2013-06-27 08:49:00,
2013-06-27 04:55:00,62.7,62.7,29.84,SE,131,2.5,6.2,100,0.00,,,0.00,VWS V14.01,2013-06-27 08:55:00,
2013-06-27 05:01:00,62.5,62.5,29.84,SSW,193,3.4,8.5,100,0.00,,,0.00,VWS V14.01,2013-06-27 09:01:00,
2013-06-27 05:07:00,62.6,62.6,29.84,SE,146,2.5,2.5,100,0.00,,,0.00,VWS V14.01,2013-06-27 09:07:00,
2013-06-27 05:13:00,62.6,62.6,29.84,SE,146,2.5,2.5,100,0.00,,,0.00,VWS V14.01,2013-06-27 09:13:00,
2013-06-27 05:19:00,62.5,62.5,29.84,South,170,2.5,6.0,100,0.00,,,0.00,VWS V14.01,2013-06-27 09:19:00,
2013-06-27 05:25:00,62.3,62.3,29.85,SSE,153,2.5,7.5,100,0.00,,,0.00,VWS V14.01,2013-06-27 09:25:00,
2013-06-27 05:31:00,62.5,62.5,29.85,South,174,2.5,2.5,100,0.00,,,0.00,VWS V14.01,2013-06-27 09:31:00,
2013-06-27 05:37:00,62.5,62.5,29.85,South,174,2.5,2.5,100,0.00,,,0.00,VWS V14.01,2013-06-27 09:37:00,
2013-06-27 05:43:00,62.3,62.3,29.85,South,174,2.5,6.4,100,0.00,,,0.00,VWS V14.01,2013-06-27 09:43:00,
2013-06-27 05:49:00,62.3,62.3,29.85,SE,136,2.5,5.7,100,0.00,,,0.00,VWS V14.01,2013-06-27 09:49:00,
2013-06-27 05:55:00,62.2,62.2,29.85,South,183,2.5,2.5,100,0.00,,,0.00,VWS V14.01,2013-06-27 09:55:00,
2013-06-27 06:01:00,62.5,62.5,29.85,South,183,2.5,2.5,100,0.00,,,0.00,VWS V14.01,2013-06-27 10:01:00,
2013-06-27 06:07:00,62.2,62.2,29.86,South,183,2.5,2.5,100,0.00,,,0.00,VWS V14.01,2013-06-27 10:07:00,
2013-06-27 06:13:00,62.4,62.4,29.87,SSE,165,2.5,2.5,100,0.00,,,0.00,VWS V14.01,2013-06-27 10:13:00,
2013-06-27 06:19:00,62.4,62.4,29.87,SSW,193,2.5,2.5,100,0.00,,,0.00,VWS V14.01,2013-06-27 10:19:00,
2013-06-27 06:25:00,62.5,62.5,29.86,SSW,193,2.5,2.5,100,0.00,,,0.00,VWS V14.01,2013-06-27 10:25:00,
2013-06-27 06:31:00,62.6,62.6,29.86,South,176,3.8,5.4,100,0.00,,,0.00,VWS V14.01,2013-06-27 10:31:00,
2013-06-27 06:37:00,62.5,62.5,29.86,South,176,2.5,2.5,100,0.00,,,0.00,VWS V14.01,2013-06-27 10:37:00,
2013-06-27 06:43:00,62.2,62.2,29.87,South,176,2.5,2.5,100,0.00,,,0.00,VWS V14.01,2013-06-27 10:43:00,
2013-06-27 06:49:00,62.2,62.2,29.87,SSE,160,5.3,8.7,100,0.00,,,0.00,VWS V14.01,2013-06-27 10:49:00,
2013-06-27 06:55:00,62.5,62.5,29.87,SSE,166,2.5,5.5,100,0.00,,,0.00,VWS V14.01,2013-06-27 10:55:00,
2013-06-27 07:01:00,62.5,62.5,29.87,South,172,3.1,5.2,100,0.00,,,0.00,VWS V14.01,2013-06-27 11:01:00,
2013-06-27 07:07:00,62.4,62.4,29.87,South,172,2.5,2.5,100,0.00,,,0.00,VWS V14.01,2013-06-27 11:07:00,
2013-06-27 07:13:00,62.0,62.0,29.87,South,172,2.5,2.5,100,0.00,,,0.00,VWS V14.01,2013-06-27 11:13:00,
2013-06-27 07:19:00,62.2,62.2,29.87,South,172,2.5,2.5,100,0.00,,,0.00,VWS V14.01,2013-06-27 11:19:00,
2013-06-27 07:25:00,62.1,62.1,29.87,South,172,2.5,2.5,100,0.00,,,0.00,VWS V14.01,2013-06-27 11:25:00,
2013-06-27 07:31:00,62.1,62.1,29.87,SSW,200,2.5,4.2,100,0.00,,,0.00,VWS V14.01,2013-06-27 11:31:00,
2013-06-27 07:37:00,62.1,62.1,29.87,East,91,2.5,2.5,100,0.00,,,0.00,VWS V14.01,2013-06-27 11:37:00,
2013-06-27 07:43:00,62.2,62.2,29.87,SSW,201,6.0,6.5,100,0.00,,,0.00,VWS V14.01,2013-06-27 11:43:00,
2013-06-27 07:49:00,62.0,62.0,29.87,SSE,155,2.5,2.5,100,0.00,,,0.00,VWS V14.01,2013-06-27 11:49:00,
2013-06-27 07:55:00,62.4,62.4,29.87,South,186,4.4,6.2,100,0.00,,,0.00,VWS V14.01,2013-06-27 11:55:00,
2013-06-27 08:01:00,62.4,62.4,29.88,SSW,198,2.5,2.5,100,0.00,,,0.00,VWS V14.01,2013-06-27 12:01:00,
2013-06-27 08:07:00,62.6,62.6,29.88,SSW,198,2.5,2.5,100,0.00,,,0.00,VWS V14.01,2013-06-27 12:07:00,
2013-06-27 08:13:00,62.3,62.3,29.88,SSW,198,2.5,2.5,100,0.00,,,0.00,VWS V14.01,2013-06-27 12:13:00,
2013-06-27 08:19:00,62.3,62.3,29.88,SW,215,2.5,5.7,100,0.00,,,0.00,VWS V14.01,2013-06-27 12:19:00,
2013-06-27 08:25:00,62.4,62.4,29.88,South,177,2.5,2.5,100,0.00,,,0.00,VWS V14.01,2013-06-27 12:25:00,
2013-06-27 08:31:00,62.4,62.4,29.88,SW,214,2.5,2.5,100,0.00,,OVC002,0.00,VWS V14.01,2013-06-27 12:31:00,
2013-06-27 08:37:00,62.6,62.6,29.88,SW,214,2.5,2.5,100,0.00,,OVC002,0.00,VWS V14.01,2013-06-27 12:37:00,
2013-06-27 08:43:00,62.7,62.7,29.88,SW,214,2.5,2.5,100,0.00,,OVC002,0.00,VWS V14.01,2013-06-27 12:43:00,
2013-06-27 08:49:00,62.9,62.9,29.87,South,174,5.0,5.0,100,0.00,,OVC002,0.00,VWS V14.01,2013-06-27 12:49:00,
2013-06-27 08:55:00,62.9,62.9,29.87,ESE,104,2.5,2.5,100,0.00,,OVC002,0.00,VWS V14.01,2013-06-27 12:55:00,
2013-06-27 09:01:00,63.2,63.2,29.87,ESE,103,2.5,5.4,100,0.00,,,0.00,VWS V14.01,2013-06-27 13:01:00,
2013-06-27 09:07:00,63.2,63.2,29.87,SSW,195,2.5,4.6,100,0.00,,,0.00,VWS V14.01,2013-06-27 13:07:00,
2013-06-27 09:13:00,63.3,63.3,29.87,SE,143,2.5,8.3,100,0.00,,,0.00,VWS V14.01,2013-06-27 13:13:00,
2013-06-27 09:19:00,64.1,64.1,29.87,South,181,2.5,2.9,100,0.00,,,0.00,VWS V14.01,2013-06-27 13:19:00,
2013-06-27 09:25:00,64.6,64.6,29.86,South,187,6.0,8.5,100,0.00,,,0.00,VWS V14.01,2013-06-27 13:25:00,
2013-06-27 09:31:00,65.0,65.0,29.86,SSE,152,2.5,6.6,100,0.00,,,0.00,VWS V14.01,2013-06-27 13:31:00,
2013-06-27 09:37:00,64.7,64.7,29.87,ESE,110,2.5,7.8,100,0.00,,,0.00,VWS V14.01,2013-06-27 13:37:00,
2013-06-27 09:43:00,64.9,64.9,29.86,SE,125,2.5,2.5,100,0.00,,,0.00,VWS V14.01,2013-06-27 13:43:00,
2013-06-27 09:49:00,65.3,65.3,29.86,South,179,7.3,8.0,100,0.00,,,0.00,VWS V14.01,2013-06-27 13:49:00,
2013-06-27 09:55:00,64.9,64.9,29.85,ESE,117,4.1,5.9,100,0.00,,,0.00,VWS V14.01,2013-06-27 13:55:00,
2013-06-27 10:01:00,64.9,64.9,29.85,SE,141,2.5,5.9,100,0.00,,,0.00,VWS V14.01,2013-06-27 14:01:00,
2013-06-27 10:07:00,64.3,64.3,29.86,SSW,197,7.5,8.0,100,0.00,,,0.00,VWS V14.01,2013-06-27 14:07:00,
2013-06-27 10:13:00,65.0,65.0,29.85,SSW,211,5.9,7.2,100,0.00,,,0.00,VWS V14.01,2013-06-27 14:13:00,
2013-06-27 10:19:00,65.1,65.1,29.86,SSW,197,5.4,5.4,100,0.00,,,0.00,VWS V14.01,2013-06-27 14:19:00,
2013-06-27 10:25:00,64.6,64.6,29.85,South,184,7.3,9.1,100,0.00,,,0.00,VWS V14.01,2013-06-27 14:25:00,
2013-06-27 10:31:00,64.9,64.9,29.85,SSW,201,4.0,10.4,100,0.00,,,0.00,VWS V14.01,2013-06-27 14:31:00,
2013-06-27 10:37:00,65.8,65.8,29.85,SE,146,2.5,5.5,100,0.00,,,0.00,VWS V14.01,2013-06-27 14:37:00,
2013-06-27 10:43:00,67.1,67.1,29.85,SSE,158,6.7,8.1,100,0.00,,,0.00,VWS V14.01,2013-06-27 14:43:00,
2013-06-27 10:49:00,65.9,65.9,29.84,South,174,6.2,7.2,100,0.00,,,0.00,VWS V14.01,2013-06-27 14:49:00,
2013-06-27 10:55:00,65.3,65.3,29.84,North,7,2.5,6.2,100,0.00,,,0.00,VWS V14.01,2013-06-27 14:55:00,
2013-06-27 11:01:00,65.4,65.4,29.85,South,172,2.5,6.2,100,0.00,,,0.00,VWS V14.01,2013-06-27 15:01:00,
2013-06-27 11:07:00,65.4,65.4,29.85,SSW,197,4.7,7.7,100,0.00,,,0.00,VWS V14.01,2013-06-27 15:07:00,
2013-06-27 11:13:00,65.5,65.5,29.85,South,188,2.5,2.5,100,0.00,,,0.00,VWS V14.01,2013-06-27 15:13:00,
2013-06-27 11:19:00,65.4,65.4,29.85,South,181,7.0,7.6,100,0.00,,,0.00,VWS V14.01,2013-06-27 15:19:00,
2013-06-27 11:25:00,65.9,65.9,29.84,SW,225,5.7,8.7,100,0.00,,,0.00,VWS V14.01,2013-06-27 15:25:00,
2013-06-27 11:31:00,65.9,65.9,29.84,SE,143,2.5,2.5,100,0.00,,,0.00,VWS V14.01,2013-06-27 15:31:00,
2013-06-27 11:37:00,65.9,65.9,29.84,SSE,162,2.5,4.7,100,0.00,,,0.00,VWS V14.01,2013-06-27 15:37:00,
2013-06-27 11:43:00,65.9,65.9,29.84,SSE,162,2.5,2.5,100,0.00,,,0.00,VWS V14.01,2013-06-27 15:43:00,
2013-06-27 11:49:00,66.2,66.2,29.84,South,183,5.1,6.4,100,0.00,,,0.00,VWS V14.01,2013-06-27 15:49:00,
2013-06-27 11:55:00,66.0,66.0,29.84,ESE,122,2.5,3.3,100,0.00,,,0.00,VWS V14.01,2013-06-27 15:55:00,
2013-06-27 12:01:00,66.0,66.0,29.84,ESE,120,3.9,4.2,100,0.00,,,0.00,VWS V14.01,2013-06-27 16:01:00,
2013-06-27 12:07:00,66.9,66.9,29.84,WSW,242,3.5,4.8,100,0.00,,,0.00,VWS V14.01,2013-06-27 16:07:00,
2013-06-27 12:13:00,67.0,67.0,29.84,SSE,149,2.5,5.8,100,0.00,,,0.00,VWS V14.01,2013-06-27 16:13:00,
2013-06-27 12:19:00,67.1,67.1,29.84,NNW,339,2.5,3.3,100,0.00,,,0.00,VWS V14.01,2013-06-27 16:19:00,
2013-06-27 12:25:00,66.4,66.4,29.84,SE,125,3.3,5.4,100,0.00,,,0.00,VWS V14.01,2013-06-27 16:25:00,
2013-06-27 12:31:00,67.3,67.3,29.84,South,188,2.5,2.5,100,0.00,,,0.00,VWS V14.01,2013-06-27 16:31:00,
2013-06-27 12:37:00,66.7,66.7,29.84,NE,48,2.5,2.5,100,0.00,,,0.00,VWS V14.01,2013-06-27 16:37:00,
2013-06-27 12:43:00,66.4,66.4,29.84,NE,48,2.5,2.5,100,0.00,,,0.00,VWS V14.01,2013-06-27 16:43:00,
2013-06-27 12:49:00,66.5,66.5,29.84,East,98,2.5,3.6,100,0.00,,,0.00,VWS V14.01,2013-06-27 16:49:00,
2013-06-27 12:55:00,66.2,66.2,29.84,SSE,150,2.5,3.1,100,0.00,,,0.00,VWS V14.01,2013-06-27 16:55:00,
2013-06-27 13:01:00,65.8,65.8,29.84,SSE,150,2.5,2.5,100,0.00,,,0.00,VWS V14.01,2013-06-27 17:01:00,
2013-06-27 13:07:00,65.0,65.0,29.84,SSE,150,2.5,2.5,100,0.00,,,0.00,VWS V14.01,2013-06-27 17:07:00,
2013-06-27 13:13:00,64.8,64.8,29.84,SSW,193,4.4,4.4,100,0.00,,,0.00,VWS V14.01,2013-06-27 17:13:00,
2013-06-27 13:19:00,65.9,65.9,29.83,SE,124,2.5,4.2,100,0.00,,,0.00,VWS V14.01,2013-06-27 17:19:00,
2013-06-27 13:25:00,64.9,64.9,29.83,SE,124,2.5,2.5,100,0.00,,,0.00,VWS V14.01,2013-06-27 17:25:00,
2013-06-27 13:31:00,64.7,64.7,29.83,ENE,65,3.2,5.3,100,0.00,,,0.00,VWS V14.01,2013-06-27 17:31:00,
2013-06-27 13:37:00,65.8,65.8,29.83,ENE,65,2.5,2.5,100,0.00,,,0.00,VWS V14.01,2013-06-27 17:37:00,
2013-06-27 13:43:00,65.8,65.8,29.83,ENE,65,2.5,2.5,100,0.00,,,0.00,VWS V14.01,2013-06-27 17:43:00,
2013-06-27 13:49:00,66.0,66.0,29.83,ENE,65,2.5,2.5,100,0.00,,,0.00,VWS V14.01,2013-06-27 17:49:00,
2013-06-27 13:55:00,66.0,66.0,29.83,ENE,65,2.5,2.5,100,0.00,,-RA,0.00,VWS V14.01,2013-06-27 17:55:00,
2013-06-27 14:01:00,65.6,65.6,29.83,SSW,212,4.7,6.2,100,0.00,,-RA,0.00,VWS V14.01,2013-06-27 18:01:00,
2013-06-27 14:07:00,65.4,65.4,29.83,SE,139,3.6,7.3,100,0.00,,-RA,0.00,VWS V14.01,2013-06-27 18:07:00,
2013-06-27 14:13:00,65.6,65.6,29.83,South,169,2.5,2.5,100,0.00,,-RA,0.00,VWS V14.01,2013-06-27 18:13:00,
2013-06-27 14:19:00,66.0,66.0,29.82,SSE,166,3.4,7.1,100,0.00,,-RA,0.00,VWS V14.01,2013-06-27 18:19:00,
2013-06-27 14:25:00,65.6,65.6,29.82,SSE,166,2.5,2.5,100,0.00,,-RA,0.00,VWS V14.01,2013-06-27 18:25:00,
2013-06-27 14:31:00,65.1,65.1,29.82,East,101,2.5,4.9,100,0.00,,-RA,0.00,VWS V14.01,2013-06-27 18:31:00,
2013-06-27 14:37:00,65.4,65.4,29.82,SSW,201,4.4,4.4,100,0.00,,-RA,0.00,VWS V14.01,2013-06-27 18:37:00,
2013-06-27 14:43:00,65.1,65.1,29.82,ESE,108,2.5,3.5,100,0.00,,-RA,0.00,VWS V14.01,2013-06-27 18:43:00,
2013-06-27 14:49:00,65.3,65.3,29.82,South,173,3.5,4.8,100,0.00,,-RA,0.00,VWS V14.01,2013-06-27 18:49:00,
2013-06-27 14:55:00,64.5,64.5,29.82,ESE,107,2.5,2.5,100,0.00,,-RA,0.00,VWS V14.01,2013-06-27 18:55:00,
2013-06-27 15:01:00,64.6,64.6,29.82,East,90,2.5,2.5,100,0.00,,-RA,0.00,VWS V14.01,2013-06-27 19:01:00,
2013-06-27 15:07:00,64.7,64.7,29.82,South,173,2.5,4.8,100,0.00,,-RA,0.00,VWS V14.01,2013-06-27 19:07:00,
2013-06-27 15:13:00,64.6,64.6,29.82,SSE,149,2.5,2.5,100,0.00,,-RA,0.00,VWS V14.01,2013-06-27 19:13:00,
2013-06-27 15:19:00,64.1,64.1,29.82,ENE,66,2.5,6.6,100,0.00,,-RA,0.00,VWS V14.01,2013-06-27 19:19:00,
2013-06-27 15:25:00,64.3,64.3,29.82,ENE,60,2.5,3.7,100,0.00,,-RA,0.00,VWS V14.01,2013-06-27 19:25:00,
2013-06-27 15:31:00,64.4,64.4,29.82,ENE,60,2.5,2.5,100,0.00,,-RA,0.00,VWS V14.01,2013-06-27 19:31:00,
2013-06-27 15:37:00,64.3,64.3,29.82,SE,141,2.5,3.2,100,0.00,,-RA,0.00,VWS V14.01,2013-06-27 19:37:00,
2013-06-27 15:43:00,64.5,64.5,29.82,North,10,3.6,3.8,100,0.00,,-RA,0.00,VWS V14.01,2013-06-27 19:43:00,
2013-06-27 15:49:00,64.2,64.2,29.82,ENE,69,4.7,5.7,100,0.00,,-RA,0.00,VWS V14.01,2013-06-27 19:49:00,
2013-06-27 15:55:00,64.3,64.3,29.82,ENE,60,2.5,2.5,100,0.00,,-RA,0.00,VWS V14.01,2013-06-27 19:55:00,
2013-06-27 16:01:00,64.2,64.2,29.82,East,93,3.7,6.4,100,0.00,,-RA,0.00,VWS V14.01,2013-06-27 20:01:00,
2013-06-27 16:07:00,64.5,64.5,29.81,NE,45,2.5,2.8,100,0.00,,-RA,0.00,VWS V14.01,2013-06-27 20:07:00,
2013-06-27 16:13:00,64.4,64.4,29.82,NE,45,2.5,2.5,100,0.00,,-RA,0.00,VWS V14.01,2013-06-27 20:13:00,
2013-06-27 16:19:00,63.7,63.7,29.81,North,349,2.5,3.4,100,0.00,,-RA,0.00,VWS V14.01,2013-06-27 20:19:00,
2013-06-27 16:25:00,64.0,64.0,29.81,SW,225,2.5,3.2,100,0.00,,-RA,0.00,VWS V14.01,2013-06-27 20:25:00,
2013-06-27 16:31:00,63.9,63.9,29.82,SW,225,2.5,2.5,100,0.00,,-RA,0.00,VWS V14.01,2013-06-27 20:31:00,
2013-06-27 16:37:00,63.9,63.9,29.81,ENE,63,2.5,3.5,100,0.00,,-RA,0.00,VWS V14.01,2013-06-27 20:37:00,
2013-06-27 16:43:00,64.2,64.2,29.81,East,93,2.5,5.8,100,0.00,,-RA,0.00,VWS V14.01,2013-06-27 20:43:00,
2013-06-27 16:51:00,63.8,63.8,29.81,ESE,103,5.5,5.7,100,0.00,,-RA,0.00,VWS V14.01,2013-06-27 20:51:00,
2013-06-27 16:57:00,63.1,63.1,29.81,SSE,160,2.5,2.5,100,0.00,,-RA,0.00,VWS V14.01,2013-06-27 20:57:00,
2013-06-27 17:07:00,64.0,64.0,29.81,SSE,160,2.5,2.5,100,0.00,,,0.00,VWS V14.01,2013-06-27 21:07:00,
2013-06-27 17:13:00,64.2,64.2,29.81,SSE,155,4.6,7.0,100,0.00,,,0.00,VWS V14.01,2013-06-27 21:13:00,
2013-06-27 17:19:00,63.9,63.9,29.81,NE,56,2.5,2.5,100,0.00,,,0.00,VWS V14.01,2013-06-27 21:19:00,
2013-06-27 17:27:00,63.7,63.7,29.81,SSE,150,2.5,2.5,100,0.00,,,0.00,VWS V14.01,2013-06-27 21:27:00,
2013-06-27 17:33:00,63.2,63.2,29.80,SSE,150,2.5,2.5,100,0.00,,,0.00,VWS V14.01,2013-06-27 21:33:00,
2013-06-27 17:39:00,63.3,63.3,29.81,SSE,162,2.5,2.5,100,0.00,,,0.00,VWS V14.01,2013-06-27 21:39:00,
2013-06-27 17:45:00,63.3,63.3,29.81,ENE,63,2.5,6.0,100,0.00,,,0.00,VWS V14.01,2013-06-27 21:45:00,
2013-06-27 17:51:00,63.6,63.6,29.80,South,181,4.7,4.7,100,0.00,,,0.00,VWS V14.01,2013-06-27 21:51:00,
2013-06-27 17:59:00,63.5,63.5,29.80,South,172,2.5,4.1,100,0.00,,,0.00,VWS V14.01,2013-06-27 21:59:00,
2013-06-27 18:05:00,63.1,63.1,29.80,South,172,2.5,2.5,100,0.00,,,0.00,VWS V14.01,2013-06-27 22:05:00,
2013-06-27 18:11:00,63.0,63.0,29.80,North,3,3.4,3.7,100,0.00,,,0.00,VWS V14.01,2013-06-27 22:11:00,
2013-06-27 18:19:00,63.3,63.3,29.80,SSE,150,2.5,2.5,100,0.00,,,0.00,VWS V14.01,2013-06-27 22:19:00,
2013-06-27 18:25:00,63.2,63.2,29.80,South,170,3.4,5.1,100,0.00,,,0.00,VWS V14.01,2013-06-27 22:25:00,
2013-06-27 18:31:00,63.2,63.2,29.80,South,170,2.5,2.5,100,0.00,,,0.00,VWS V14.01,2013-06-27 22:31:00,
2013-06-27 18:39:00,63.3,63.3,29.80,SSW,200,7.1,7.2,100,0.00,,,0.00,VWS V14.01,2013-06-27 22:39:00,
2013-06-27 18:49:00,63.4,63.4,29.80,South,174,3.6,7.1,100,0.00,,,0.00,VWS V14.01,2013-06-27 22:49:00,
2013-06-27 18:55:00,63.1,63.1,29.80,SSE,148,2.5,2.5,100,0.00,,,0.00,VWS V14.01,2013-06-27 22:55:00,
2013-06-27 19:01:00,63.3,63.3,29.80,SE,135,2.5,5.1,100,0.00,,,0.00,VWS V14.01,2013-06-27 23:01:00,
2013-06-27 19:07:00,63.2,63.2,29.80,NNE,20,2.5,2.5,100,0.00,,,0.00,VWS V14.01,2013-06-27 23:07:00,
2013-06-27 19:13:00,63.0,63.0,29.80,NNE,20,2.5,2.5,100,0.00,,,0.00,VWS V14.01,2013-06-27 23:13:00,
2013-06-27 19:19:00,63.3,63.3,29.80,South,174,2.5,4.7,100,0.00,,,0.00,VWS V14.01,2013-06-27 23:19:00,
2013-06-27 19:25:00,63.1,63.1,29.80,South,174,2.5,2.5,100,0.00,,,0.00,VWS V14.01,2013-06-27 23:25:00,
2013-06-27 19:31:00,63.3,63.3,29.80,South,174,2.5,2.5,100,0.00,,,0.00,VWS V14.01,2013-06-27 23:31:00,
2013-06-27 19:37:00,63.1,63.1,29.80,SE,125,2.5,5.7,100,0.00,,,0.00,VWS V14.01,2013-06-27 23:37:00,
2013-06-27 19:45:00,63.2,63.2,29.79,South,177,2.5,5.7,100,0.00,,,0.00,VWS V14.01,2013-06-27 23:45:00,
2013-06-27 19:53:00,63.1,63.1,29.80,South,177,2.5,2.5,100,0.00,,,0.00,VWS V14.01,2013-06-27 23:53:00,
2013-06-27 20:01:00,63.0,63.0,29.80,South,177,2.5,2.5,100,0.00,,,0.00,VWS V14.01,2013-06-28 00:01:00,
2013-06-27 20:07:00,63.0,63.0,29.80,South,177,2.5,2.5,100,0.00,,,0.00,VWS V14.01,2013-06-28 00:07:00,
2013-06-27 20:13:00,63.2,63.2,29.80,South,177,2.5,2.5,100,0.00,,,0.00,VWS V14.01,2013-06-28 00:13:00,
2013-06-27 20:19:00,63.3,63.3,29.80,South,177,2.5,2.5,100,0.00,,,0.00,VWS V14.01,2013-06-28 00:19:00,
2013-06-27 20:25:00,63.0,63.0,29.80,SE,131,2.5,6.5,100,0.00,,,0.00,VWS V14.01,2013-06-28 00:25:00,
2013-06-27 20:33:00,63.1,63.1,29.79,ESE,117,2.5,7.4,100,0.00,,,0.00,VWS V14.01,2013-06-28 00:33:00,
2013-06-27 20:39:00,63.1,63.1,29.79,ESE,117,2.5,2.5,100,0.00,,,0.00,VWS V14.01,2013-06-28 00:39:00,
2013-06-27 20:45:00,63.1,63.1,29.79,SSE,159,3.7,4.7,100,0.00,,,0.00,VWS V14.01,2013-06-28 00:45:00,
2013-06-27 20:51:00,63.2,63.2,29.79,SE,128,2.5,2.5,100,0.00,,,0.00,VWS V14.01,2013-06-28 00:51:00,
2013-06-27 20:59:00,63.0,63.0,29.80,SSE,165,2.5,2.5,100,0.00,,,0.00,VWS V14.01,2013-06-28 00:59:00,
2013-06-27 21:07:00,63.1,63.1,29.80,SSE,165,2.5,2.5,100,0.00,,,0.00,VWS V14.01,2013-06-28 01:07:00,
2013-06-27 21:13:00,63.0,63.0,29.80,SSE,165,2.5,2.5,100,0.00,,,0.00,VWS V14.01,2013-06-28 01:13:00,
2013-06-27 21:19:00,63.1,63.1,29.80,SSE,165,2.5,2.5,100,0.00,,,0.00,VWS V14.01,2013-06-28 01:19:00,
2013-06-27 21:29:00,63.0,63.0,29.80,SSE,165,2.5,2.5,100,0.00,,,0.00,VWS V14.01,2013-06-28 01:29:00,
2013-06-27 21:35:00,63.1,63.1,29.80,SSE,165,2.5,2.5,100,0.00,,,0.00,VWS V14.01,2013-06-28 01:35:00,
2013-06-27 21:41:00,63.0,63.0,29.80,South,188,6.6,6.6,100,0.00,,,0.00,VWS V14.01,2013-06-28 01:41:00,
2013-06-27 21:47:00,63.0,63.0,29.80,South,170,2.5,2.5,100,0.00,,,0.00,VWS V14.01,2013-06-28 01:47:00,
2013-06-27 21:53:00,63.0,63.0,29.80,SSE,166,2.8,7.7,100,0.00,,,0.00,VWS V14.01,2013-06-28 01:53:00,
2013-06-27 21:59:00,63.0,63.0,29.80,SSE,166,2.5,2.5,100,0.00,,,0.00,VWS V14.01,2013-06-28 01:59:00,
2013-06-27 22:05:00,63.0,63.0,29.80,SSE,166,2.5,2.5,100,0.00,,,0.00,VWS V14.01,2013-06-28 02:05:00,
2013-06-27 22:11:00,62.9,62.9,29.80,SSE,166,2.5,2.5,100,0.00,,,0.00,VWS V14.01,2013-06-28 02:11:00,
2013-06-27 22:19:00,63.2,63.2,29.80,SSE,166,2.5,2.5,100,0.00,,,0.00,VWS V14.01,2013-06-28 02:19:00,
2013-06-27 22:25:00,63.2,63.2,29.80,SSE,166,2.5,2.5,100,0.00,,,0.00,VWS V14.01,2013-06-28 02:25:00,
2013-06-27 22:33:00,63.2,63.2,29.79,SSE,166,2.5,2.5,100,0.00,,,0.00,VWS V14.01,2013-06-28 02:33:00,
2013-06-27 22:39:00,63.2,63.2,29.79,SSE,166,2.5,2.5,100,0.00,,,0.00,VWS V14.01,2013-06-28 02:39:00,
2013-06-27 22:45:00,63.2,63.2,29.79,SSE,166,2.5,2.5,100,0.00,,,0.00,VWS V14.01,2013-06-28 02:45:00,
2013-06-27 22:51:00,63.1,63.1,29.79,SSE,166,2.5,2.5,100,0.00,,,0.00,VWS V14.01,2013-06-28 02:51:00,
2013-06-27 22:57:00,62.9,62.9,29.79,SSE,166,2.5,2.5,100,0.00,,,0.00,VWS V14.01,2013-06-28 02:57:00,
2013-06-27 23:03:00,63.2,63.2,29.79,SSE,166,2.5,2.5,100,0.00,,,0.00,VWS V14.01,2013-06-28 03:03:00,
2013-06-27 23:09:00,63.3,63.3,29.78,SSE,166,2.5,2.5,100,0.00,,,0.00,VWS V14.01,2013-06-28 03:09:00,
2013-06-27 23:15:00,63.2,63.2,29.78,SSE,166,2.5,2.5,100,0.00,,,0.00,VWS V14.01,2013-06-28 03:15:00,
2013-06-27 23:21:00,63.3,63.3,29.78,SSE,166,2.5,2.5,100,0.00,,,0.00,VWS V14.01,2013-06-28 03:21:00,
2013-06-27 23:29:00,63.3,63.3,29.78,SSE,166,2.5,2.5,100,0.00,,,0.00,VWS V14.01,2013-06-28 03:29:00,
2013-06-27 23:35:00,63.4,63.4,29.78,SSE,166,2.5,2.5,100,0.00,,,0.00,VWS V14.01,2013-06-28 03:35:00,
2013-06-27 23:43:00,63.6,63.6,29.77,SSE,166,2.5,2.5,100,0.00,,,0.00,VWS V14.01,2013-06-28 03:43:00,
2013-06-27 23:49:00,63.6,63.6,29.77,SSE,166,2.5,2.5,100,0.00,,,0.00,VWS V14.01,2013-06-28 03:49:00,
2013-06-27 23:55:00,63.6,63.6,29.77,SSE,166,2.5,2.5,100,0.00,,,0.00,VWS V14.01,2013-06-28 03:55:00,